Time;durP1;ratioP1;P1;durP2;ratioP2;P2;SDS_P1;SDS_P2;PMS_P1;PMS_P2;Temp;Humidity;BMP_temperature;BMP_pressure;BME280_temperature;BME280_humidity;BME280_pressure;Samples;Min_cycle;Max_cycle;Signal;HPM_P1;HPM_P2
2021/09/20 03:41:26;;;;;;;16.87;6.78;;;;;;;14.12;100.00;100333.23;1653434;85;21004;-90
2021/09/20 03:43:52;;;;;;;16.02;6.87;;;;;;;14.14;100.00;100338.34;1652346;86;20953;-88
2021/09/20 03:46:18;;;;;;;12.93;6.30;;;;;;;14.16;100.00;100341.58;1652589;86;21084;-89
2021/09/20 03:48:44;;;;;;;13.60;6.75;;;;;;;14.14;100.00;100344.56;1652336;86;20922;-91
2021/09/20 03:51:22;;;;;;;14.13;6.60;;;;;;;14.16;100.00;100349.71;1652905;86;21662;-90
2021/09/20 03:53:48;;;;;;;12.65;5.90;;;;;;;14.18;100.00;100342.91;1652530;85;21028;-91
2021/09/20 03:56:14;;;;;;;9.55;5.30;;;;;;;14.15;100.00;100346.72;1652427;86;21669;-90
2021/09/20 03:58:40;;;;;;;12.43;5.22;;;;;;;14.05;100.00;100347.11;1652480;85;21545;-90
2021/09/20 04:01:06;;;;;;;12.63;5.10;;;;;;;13.96;100.00;100346.69;1652287;86;20901;-90
2021/09/20 04:03:32;;;;;;;9.93;3.98;;;;;;;13.86;100.00;100353.83;1652600;86;20924;-88
2021/09/20 04:05:58;;;;;;;7.50;4.15;;;;;;;13.80;100.00;100351.47;1652538;86;21015;-90
2021/09/20 04:08:28;;;;;;;9.13;3.75;;;;;;;13.75;100.00;100354.23;1652603;86;20991;-91
2021/09/20 04:10:56;;;;;;;5.17;3.70;;;;;;;13.68;100.00;100358.64;1652290;86;21078;-91
2021/09/20 04:13:23;;;;;;;6.58;3.87;;;;;;;13.61;100.00;100354.09;1652490;86;21008;-90
2021/09/20 04:15:53;;;;;;;5.08;3.27;;;;;;;13.59;100.00;100351.68;1652390;85;21072;-90
2021/09/20 04:18:22;;;;;;;4.80;3.20;;;;;;;13.54;100.00;100357.14;1652225;86;21572;-89
2021/09/20 04:20:49;;;;;;;5.12;3.25;;;;;;;13.51;100.00;100354.20;1652515;85;21020;-89
2021/09/20 04:23:15;;;;;;;5.53;3.20;;;;;;;13.53;100.00;100358.76;1652270;86;21185;-89
2021/09/20 04:25:41;;;;;;;5.92;3.08;;;;;;;14.08;100.00;100364.14;1652443;85;21093;-91
2021/09/20 04:28:07;;;;;;;5.17;2.77;;;;;;;14.52;100.00;100364.44;1652518;85;20989;-92
2021/09/20 04:30:53;;;;;;;3.12;2.27;;;;;;;14.50;100.00;100368.51;1652480;86;20956;-90
2021/09/20 04:33:22;;;;;;;5.60;2.20;;;;;;;14.46;100.00;100369.64;1641143;86;21019;-89
2021/09/20 04:35:49;;;;;;;3.02;2.05;;;;;;;14.56;100.00;100366.56;1652793;85;21884;-91
2021/09/20 04:38:17;;;;;;;2.50;1.70;;;;;;;15.47;100.00;100368.45;1652339;86;21985;-91
2021/09/20 04:40:43;;;;;;;2.70;1.50;;;;;;;16.73;100.00;100367.59;1659740;82;21602;-91
2021/09/20 04:43:12;;;;;;;5.47;1.40;;;;;;;17.84;100.00;100359.75;1654613;86;22000;-91
2021/09/20 04:45:41;;;;;;;1.70;1.30;;;;;;;18.81;100.00;100363.78;1654402;86;21008;-93
2021/09/20 04:48:10;;;;;;;4.12;1.30;;;;;;;19.86;100.00;100364.44;1643117;86;21160;-93
2021/09/20 04:50:41;;;;;;;2.60;1.57;;;;;;;20.92;100.00;100361.34;1654339;86;21008;-94
2021/09/20 04:53:08;;;;;;;5.65;1.30;;;;;;;21.92;100.00;100365.64;1654390;86;21059;-93
2021/09/20 04:55:35;;;;;;;2.45;1.37;;;;;;;22.58;100.00;100371.45;1654645;86;21086;-92
2021/09/20 04:58:10;;;;;;;1.02;0.93;;;;;;;23.31;100.00;100368.27;1654703;86;21043;-96
2021/09/20 05:00:38;;;;;;;4.03;1.40;;;;;;;24.16;100.00;100371.05;1655062;86;21354;-95
2021/09/20 05:03:04;;;;;;;1.77;1.10;;;;;;;24.88;93.68;100369.34;1654584;86;20941;-94
2021/09/20 05:34:32;;;;;;;1.22;1.10;;;;;;;31.50;41.74;100369.27;1654731;86;20985;-96
2021/09/20 05:36:58;;;;;;;1.15;1.12;;;;;;;31.70;40.40;100368.74;1655180;86;21156;-94
2021/09/20 05:39:25;;;;;;;1.82;1.17;;;;;;;32.16;37.02;100367.58;1655884;86;21647;-96
2021/09/20 07:01:49;;;;;;;10.35;5.58;;;;;;;37.55;22.29;100430.01;1708204;82;20970;-95
2021/09/20 07:04:16;;;;;;;10.65;6.40;;;;;;;35.66;23.17;100436.08;1667666;85;21085;-93
2021/09/20 07:06:45;;;;;;;14.25;6.55;;;;;;;35.65;25.70;100433.69;1717978;83;21137;-95
2021/09/20 07:09:13;;;;;;;13.20;7.95;;;;;;;36.54;23.61;100431.50;1717933;83;21114;-93
2021/09/20 07:11:40;;;;;;;16.73;8.50;;;;;;;35.81;24.29;100438.55;1718153;83;21534;-92
2021/09/20 07:14:33;;;;;;;19.52;8.18;;;;;;;35.63;23.90;100432.75;1718071;83;21293;-93
2021/09/20 07:16:59;;;;;;;14.58;7.60;;;;;;;35.74;24.47;100434.49;1718198;83;21308;-93
2021/09/20 07:19:25;;;;;;;15.65;5.72;;;;;;;35.03;23.99;100436.20;1717961;83;21507;-92
2021/09/20 07:21:51;;;;;;;11.35;5.58;;;;;;;33.77;24.39;100442.42;1717964;82;21007;-94
2021/09/20 07:24:17;;;;;;;11.18;5.47;;;;;;;32.77;25.83;100450.09;1718036;83;20963;-93
2021/09/20 07:27:35;;;;;;;17.95;5.60;;;;;;;31.94;26.01;100443.03;1718013;83;20991;-95
2021/09/20 07:30:06;;;;;;;7.37;3.33;;;;;;;31.78;27.25;100448.31;1718032;83;21132;-92
2021/09/20 07:32:33;;;;;;;6.70;2.90;;;;;;;30.91;25.82;100443.73;1718207;83;21074;-89
2021/09/20 07:34:59;;;;;;;8.35;3.08;;;;;;;29.54;26.56;100452.44;1717904;82;21051;-94
2021/09/20 07:37:27;;;;;;;7.55;3.35;;;;;;;28.60;28.53;100447.63;1717979;83;21050;-93
2021/09/20 07:39:53;;;;;;;4.62;2.30;;;;;;;28.37;29.65;100449.20;1718027;83;20968;-94
2021/09/20 07:42:19;;;;;;;6.75;2.72;;;;;;;28.42;30.00;100458.59;1718013;83;21025;-94
2021/09/20 07:44:45;;;;;;;4.83;2.67;;;;;;;28.57;29.85;100459.48;1718414;83;20967;-94
2021/09/20 07:47:11;;;;;;;4.45;2.58;;;;;;;28.36;30.48;100459.51;1718161;83;21014;-90
2021/09/20 07:49:39;;;;;;;7.03;2.85;;;;;;;28.91;29.98;100462.25;1717995;83;20954;-93
2021/09/20 07:52:05;;;;;;;4.55;2.75;;;;;;;28.87;29.79;100453.72;1717786;83;21007;-92
2021/09/20 07:54:31;;;;;;;4.78;2.65;;;;;;;28.50;30.40;100451.89;1717832;83;21174;-91
2021/09/20 07:56:57;;;;;;;4.97;2.52;;;;;;;28.47;30.02;100456.82;1717785;83;21379;-89
2021/09/20 07:59:27;;;;;;;4.97;2.58;;;;;;;28.44;30.10;100452.05;1717904;83;21054;-92
2021/09/20 08:01:52;;;;;;;5.70;3.05;;;;;;;28.56;30.55;100455.11;1695569;83;21047;-94
2021/09/20 08:04:18;;;;;;;5.83;3.00;;;;;;;29.62;30.39;100444.33;1718043;83;20994;-95
2021/09/20 08:06:44;;;;;;;4.62;2.50;;;;;;;30.71;29.82;100440.59;1718009;83;21169;-91
2021/09/20 08:09:16;;;;;;;4.28;2.35;;;;;;;32.23;28.31;100433.04;1717843;83;21677;-91
2021/09/20 08:11:42;;;;;;;;;;;;;;;33.00;26.21;100437.67;1720422;83;21035;-90
2021/09/20 08:14:08;;;;;;;5.05;2.95;;;;;;;32.66;25.59;100436.84;1718346;83;20247;-90
2021/09/20 08:16:33;;;;;;;3.72;2.75;;;;;;;32.08;25.61;100438.73;1695744;83;20923;-92
2021/09/20 08:19:07;;;;;;;3.27;2.35;;;;;;;32.05;26.31;100431.20;1717915;83;21692;-94
2021/09/20 08:21:33;;;;;;;5.17;2.85;;;;;;;31.40;26.57;100430.82;1717763;82;21011;-91
2021/09/20 08:23:59;;;;;;;6.35;2.60;;;;;;;30.42;27.48;100433.50;1717650;83;21034;-93
2021/09/20 08:26:25;;;;;;;4.85;2.65;;;;;;;29.52;28.37;100438.94;1718059;83;21066;-90
2021/09/20 08:28:54;;;;;;;5.47;2.33;;;;;;;28.70;29.16;100446.87;1718063;83;21086;-93
2021/09/20 08:31:19;;;;;;;6.70;2.47;;;;;;;27.98;30.53;100429.70;1717789;82;21272;-92
2021/09/20 08:33:45;;;;;;;4.45;2.27;;;;;;;27.38;31.19;100440.34;1717857;83;21664;-91
2021/09/20 08:36:11;;;;;;;5.03;2.47;;;;;;;26.95;32.52;100425.95;1718001;83;20995;-91
2021/09/20 08:38:38;;;;;;;2.87;1.70;;;;;;;26.60;32.01;100437.91;1718186;83;21023;-93
2021/09/20 08:41:04;;;;;;;4.08;1.32;;;;;;;25.86;32.60;100444.58;1718039;83;21011;-89
2021/09/20 08:43:31;;;;;;;4.03;1.30;;;;;;;25.09;33.15;100444.81;1718395;83;21543;-89
2021/09/20 08:46:02;;;;;;;4.12;0.90;;;;;;;24.57;34.33;100454.87;1717909;83;20944;-90
2021/09/20 08:48:34;;;;;;;4.55;0.90;;;;;;;24.03;34.89;100446.63;1715210;83;21542;-91
2021/09/20 08:51:00;;;;;;;2.55;0.85;;;;;;;23.61;35.68;100453.16;1717743;83;21058;-91
2021/09/20 08:53:26;;;;;;;1.12;0.80;;;;;;;23.22;35.83;100452.28;1695794;83;20994;-89
2021/09/20 08:55:52;;;;;;;3.58;0.90;;;;;;;23.03;36.86;100451.55;1695506;83;21897;-91
2021/09/20 08:58:17;;;;;;;2.98;0.72;;;;;;;23.05;37.71;100449.23;1717850;83;20971;-90
2021/09/20 09:00:43;;;;;;;2.12;1.00;;;;;;;23.27;38.24;100456.17;1717969;83;21693;-87
2021/09/20 09:03:09;;;;;;;3.17;0.78;;;;;;;23.47;37.57;100461.26;1718515;82;21539;-90
2021/09/20 09:05:35;;;;;;;1.27;0.62;;;;;;;23.23;37.15;100459.38;1717939;82;20884;-90
2021/09/20 09:08:06;;;;;;;2.40;0.60;;;;;;;23.06;38.18;100461.84;1718066;83;22035;-87
2021/09/20 09:10:37;;;;;;;0.70;0.60;;;;;;;23.15;37.85;100465.84;1718248;83;20980;-86
2021/09/20 09:13:06;;;;;;;1.80;0.93;;;;;;;23.15;37.88;100470.51;1717938;83;21027;-88
2021/09/20 09:15:33;;;;;;;5.10;1.20;;;;;;;23.22;37.58;100472.91;1718355;82;20976;-86
2021/09/20 09:18:02;;;;;;;1.60;0.90;;;;;;;23.25;37.69;100468.66;1718111;83;21055;-88
2021/09/20 09:20:35;;;;;;;0.82;0.70;;;;;;;23.37;37.85;100474.70;1718597;83;21070;-89
2021/09/20 09:23:08;;;;;;;2.30;1.00;;;;;;;23.85;37.84;100466.81;1621648;87;21084;-91
2021/09/20 09:25:47;;;;;;;0.60;0.60;;;;;;;24.67;38.20;100468.88;1621449;87;21572;-89
2021/09/20 09:28:29;;;;;;;1.30;0.90;;;;;;;25.50;35.33;100471.48;1621422;87;21079;-93
2021/09/20 09:31:02;;;;;;;3.43;0.60;;;;;;;25.69;35.88;100463.75;1622407;87;21150;-89
2021/09/20 09:33:46;;;;;;;3.12;0.90;;;;;;;26.55;34.35;100460.33;1621466;87;21177;-93
2021/09/20 09:36:14;;;;;;;1.05;0.70;;;;;;;26.95;33.64;100467.44;1621161;88;21631;-89
2021/09/20 09:39:00;;;;;;;2.60;0.60;;;;;;;27.28;33.81;100469.27;1621321;87;21119;-91
2021/09/20 09:41:36;;;;;;;3.08;0.70;;;;;;;27.33;33.85;100468.95;1599876;88;21044;-88
2021/09/20 09:44:06;;;;;;;1.25;0.60;;;;;;;27.38;32.82;100468.03;1557150;92;21060;-89
2021/09/20 09:46:43;;;;;;;5.05;0.80;;;;;;;27.29;32.39;100467.50;1502896;94;21184;-88
2021/09/20 09:49:16;;;;;;;1.20;0.93;;;;;;;26.68;32.80;100476.34;1452804;98;21680;-89
2021/09/20 09:52:12;;;;;;;2.30;0.90;;;;;;;26.43;33.42;100479.27;1363066;104;21109;-89
2021/09/20 09:54:41;;;;;;;1.67;0.85;;;;;;;25.96;33.85;100469.39;1390777;102;21133;-91
2021/09/20 09:57:17;;;;;;;4.70;0.88;;;;;;;25.29;33.93;100469.66;1393576;103;21148;-90
2021/09/20 09:59:55;;;;;;;2.12;1.00;;;;;;;24.61;35.08;100481.91;1394287;103;21172;-89
2021/09/20 10:02:30;;;;;;;2.87;0.90;;;;;;;24.08;35.96;100478.61;1405537;101;21170;-88
2021/09/20 10:05:01;;;;;;;2.70;0.90;;;;;;;23.62;37.04;100487.21;1412191;101;21127;-88
2021/09/20 10:07:33;;;;;;;3.00;0.70;;;;;;;23.24;37.61;100487.11;1404411;101;21109;-90
2021/09/20 10:10:03;;;;;;;1.05;0.88;;;;;;;22.80;37.67;100495.76;1408633;101;21155;-91
2021/09/20 10:12:30;;;;;;;1.87;0.95;;;;;;;22.27;38.53;100488.77;1408761;100;21157;-92
2021/09/20 10:14:59;;;;;;;1.30;0.68;;;;;;;22.06;39.28;100488.81;1408582;101;21619;-89
2021/09/20 10:17:28;;;;;;;2.77;0.78;;;;;;;21.89;39.52;100484.88;1408563;101;21189;-89
2021/09/20 10:19:57;;;;;;;3.55;1.20;;;;;;;21.76;40.08;100485.39;1404783;101;21077;-89
2021/09/20 10:22:23;;;;;;;2.67;0.82;;;;;;;21.55;40.44;100489.55;1426331;100;21094;-89
2021/09/20 10:24:52;;;;;;;1.25;0.80;;;;;;;21.22;40.77;100486.16;1423964;100;21212;-92
2021/09/20 10:27:22;;;;;;;1.57;1.20;;;;;;;20.87;41.39;100495.19;1422696;100;21170;-89
2021/09/20 10:30:08;;;;;;;2.30;1.00;;;;;;;20.46;41.89;100504.06;1475727;96;21135;-90
2021/09/20 10:32:36;;;;;;;1.50;0.90;;;;;;;20.06;42.24;100498.34;1485346;96;21576;-88
2021/09/20 10:35:39;;;;;;;1.27;0.93;;;;;;;19.74;43.47;100500.48;1514842;93;21637;-90
2021/09/20 10:38:26;;;;;;;1.47;0.95;;;;;;;19.63;45.71;100486.07;1520666;92;21949;-89
2021/09/20 10:41:17;;;;;;;2.02;1.20;;;;;;;19.63;45.71;100486.07;1509175;93;21136;-87
2021/09/20 10:44:08;;;;;;;3.72;1.55;;;;;;;19.69;46.44;100486.97;1568684;89;21506;-88
2021/09/20 10:46:40;;;;;;;4.60;1.40;;;;;;;19.67;45.65;100497.98;1608952;88;21051;-87
2021/09/20 10:49:19;;;;;;;7.05;1.82;;;;;;;19.42;46.20;100494.92;1645751;86;21125;-88
2021/09/20 10:52:02;;;;;;;7.62;1.67;;;;;;;19.40;46.41;100504.56;1635214;86;21187;-88
2021/09/20 10:54:37;;;;;;;4.83;1.67;;;;;;;19.35;47.26;100508.81;1607022;89;21569;-90
2021/09/20 10:57:19;;;;;;;3.08;1.60;;;;;;;19.43;47.68;100508.82;1585930;89;21035;-86
2021/09/20 10:59:46;;;;;;;3.20;1.67;;;;;;;19.66;49.51;100506.76;1606556;89;21642;-87
2021/09/20 11:02:29;;;;;;;2.08;1.32;;;;;;;19.95;48.84;100507.44;1612635;88;21343;-87
2021/09/20 11:05:07;;;;;;;1.82;1.35;;;;;;;20.26;48.27;100501.48;1625720;88;21026;-85
2021/09/20 11:07:50;;;;;;;1.95;1.42;;;;;;;20.43;45.89;100498.67;1612591;89;21607;-88
2021/09/20 11:10:19;;;;;;;11.85;2.85;;;;;;;20.63;47.81;100505.39;1612746;89;20999;-84
2021/09/20 11:12:59;;;;;;;6.55;3.30;;;;;;;20.96;47.05;100507.46;1612953;89;21039;-86
2021/09/20 11:15:27;;;;;;;10.40;3.75;;;;;;;20.95;45.46;100510.78;1609159;89;21086;-86
2021/09/20 11:17:54;;;;;;;7.28;3.72;;;;;;;20.96;46.25;100512.94;1627523;86;21107;-87
2021/09/20 11:20:29;;;;;;;8.48;3.37;;;;;;;21.01;45.59;100511.39;1656256;86;21059;-87
2021/09/20 11:23:16;;;;;;;9.48;3.77;;;;;;;20.76;45.48;100508.45;1656079;86;20995;-87
2021/09/20 11:26:03;;;;;;;5.30;3.40;;;;;;;20.90;46.05;100515.64;1656428;86;21570;-89
2021/09/20 11:28:31;;;;;;;13.32;3.90;;;;;;;20.97;45.43;100512.63;1656527;86;21031;-86
2021/09/20 11:30:57;;;;;;;8.53;3.40;;;;;;;21.15;45.70;100506.46;1656483;86;21492;-86
2021/09/20 11:33:37;;;;;;;7.72;3.35;;;;;;;21.37;45.70;100508.09;1652759;86;20904;-88
2021/09/20 11:36:17;;;;;;;6.62;3.37;;;;;;;21.27;44.59;100512.58;1626090;88;21092;-87
2021/09/20 11:39:14;;;;;;;6.08;3.42;;;;;;;20.91;43.76;100514.50;1549367;92;21615;-87
2021/09/20 11:41:40;;;;;;;8.53;3.70;;;;;;;20.69;45.07;100511.48;1518928;94;21536;-87
2021/09/20 11:44:06;;;;;;;7.37;3.85;;;;;;;20.60;45.31;100511.53;1519218;94;21209;-86
2021/09/20 11:46:32;;;;;;;4.92;3.55;;;;;;;20.71;45.88;100514.14;1519189;93;21056;-88
2021/09/20 11:49:12;;;;;;;7.97;4.10;;;;;;;21.01;46.44;100516.30;1516228;94;21095;-86
2021/09/20 11:51:39;;;;;;;8.03;3.90;;;;;;;21.04;45.14;100514.26;1512818;94;21123;-88
2021/09/20 11:54:06;;;;;;;8.05;3.20;;;;;;;21.12;44.69;100504.39;1512634;94;21560;-88
2021/09/20 11:56:32;;;;;;;5.22;3.08;;;;;;;20.87;44.47;100508.88;1512715;94;21908;-86
2021/09/20 11:59:00;;;;;;;5.12;3.10;;;;;;;20.97;45.52;100503.58;1512641;94;21026;-88
2021/09/20 12:01:28;;;;;;;4.75;2.90;;;;;;;20.86;45.26;100512.77;1513500;93;21548;-86
2021/09/20 12:03:56;;;;;;;3.95;2.85;;;;;;;20.75;45.96;100516.44;1545147;92;21595;-87
2021/09/20 12:06:31;;;;;;;6.20;3.27;;;;;;;20.93;45.74;100512.23;1535792;93;21056;-84
2021/09/20 12:09:02;;;;;;;5.42;2.75;;;;;;;20.99;45.28;100504.86;1535446;93;21933;-87
2021/09/20 12:11:28;;;;;;;5.97;3.50;;;;;;;21.31;46.38;100512.94;1535582;93;21065;-88
2021/09/20 12:13:55;;;;;;;5.95;3.67;;;;;;;21.46;43.86;100525.84;1535770;93;20949;-87
2021/09/20 12:16:23;;;;;;;6.50;3.55;;;;;;;21.13;43.62;100518.31;1563034;90;21064;-85
2021/09/20 12:18:50;;;;;;;6.17;3.87;;;;;;;20.80;45.16;100525.05;1585422;90;21585;-90
2021/09/20 12:21:18;;;;;;;7.12;3.83;;;;;;;20.60;45.46;100522.48;1564352;91;21098;-90
2021/09/20 12:23:53;;;;;;;5.05;3.37;;;;;;;20.52;45.85;100528.77;1564486;91;21439;-86
2021/09/20 12:26:23;;;;;;;6.10;3.65;;;;;;;20.43;46.33;100522.75;1544661;91;21074;-86
2021/09/20 12:29:01;;;;;;;8.13;4.20;;;;;;;20.37;46.16;100526.80;1564637;91;21585;-87
2021/09/20 12:31:40;;;;;;;6.87;3.87;;;;;;;20.18;46.52;100525.02;1602635;85;21072;-86
2021/09/20 12:34:15;;;;;;;8.48;4.37;;;;;;;20.13;47.79;100526.55;1687813;84;21202;-85
2021/09/20 12:36:47;;;;;;;7.28;4.22;;;;;;;20.12;48.99;100531.23;1687746;84;21027;-86
2021/09/20 12:39:27;;;;;;;8.28;3.87;;;;;;;19.98;48.08;100529.25;1599899;89;21517;-85
2021/09/20 12:42:02;;;;;;;7.72;3.87;;;;;;;19.87;49.03;100534.81;1596971;89;21524;-84
2021/09/20 12:44:38;;;;;;;10.60;4.40;;;;;;;19.78;49.42;100534.81;1579563;89;21046;-85
2021/09/20 12:47:09;;;;;;;9.28;3.77;;;;;;;19.64;49.70;100533.58;1652058;86;22010;-86
2021/09/20 12:49:37;;;;;;;10.45;3.77;;;;;;;19.52;49.35;100538.32;1630412;86;21020;-86
2021/09/20 12:52:06;;;;;;;10.08;3.92;;;;;;;19.47;50.34;100528.11;1652551;86;21507;-87
2021/09/20 12:54:33;;;;;;;10.32;4.08;;;;;;;19.47;51.03;100532.20;1648906;86;21125;-85
2021/09/20 12:57:18;;;;;;;9.43;3.98;;;;;;;19.50;51.00;100537.03;1652314;86;21090;-86
2021/09/20 12:59:44;;;;;;;10.30;4.47;;;;;;;19.40;51.31;100534.06;1652425;86;21166;-85
2021/09/20 13:02:15;;;;;;;7.17;3.87;;;;;;;19.39;51.12;100534.39;1645546;85;21031;-85
2021/09/20 13:04:44;;;;;;;6.10;4.00;;;;;;;19.35;52.23;100527.38;1629367;87;21682;-86
2021/09/20 13:07:14;;;;;;;7.47;3.92;;;;;;;19.38;51.90;100524.00;1605581;89;21058;-86
2021/09/20 13:10:07;;;;;;;9.43;3.85;;;;;;;19.37;51.98;100529.80;1601949;89;21143;-85
2021/09/20 13:12:46;;;;;;;7.55;4.00;;;;;;;19.23;51.26;100532.11;1577220;91;21113;-87
2021/09/20 13:15:18;;;;;;;7.47;3.65;;;;;;;18.98;52.59;100534.25;1576468;91;21511;-86
2021/09/20 13:17:59;;;;;;;6.53;4.03;;;;;;;18.96;54.09;100535.92;1577366;91;21101;-86
2021/09/20 13:20:32;;;;;;;6.65;3.92;;;;;;;18.90;53.94;100537.75;1558300;91;21046;-85
2021/09/20 13:23:04;;;;;;;9.20;4.05;;;;;;;18.94;54.77;100535.45;1577008;91;21066;-86
2021/09/20 13:25:36;;;;;;;7.80;4.53;;;;;;;18.86;54.01;100537.59;1567343;90;21169;-86
2021/09/20 13:28:13;;;;;;;8.73;4.50;;;;;;;18.80;55.41;100536.13;1577221;91;21591;-87
2021/09/20 13:30:42;;;;;;;11.73;4.53;;;;;;;18.70;56.21;100543.19;1575360;91;21093;-88
2021/09/20 13:33:20;;;;;;;8.18;4.15;;;;;;;18.60;56.03;100540.20;1577074;91;21135;-86
2021/09/20 13:35:55;;;;;;;7.78;4.42;;;;;;;18.47;56.43;100547.38;1577292;91;21071;-86
2021/09/20 13:38:24;;;;;;;6.75;4.05;;;;;;;18.33;57.52;100550.75;1558352;92;21187;-86
2021/09/20 13:40:52;;;;;;;9.53;4.15;;;;;;;18.26;58.84;100550.38;1558566;91;21167;-85
2021/09/20 13:43:22;;;;;;;10.25;3.80;;;;;;;18.23;60.69;100553.16;1554940;91;21161;-86
2021/09/20 13:45:49;;;;;;;12.10;4.17;;;;;;;18.19;61.61;100556.84;1553585;92;21137;-86
2021/09/20 13:48:17;;;;;;;8.15;4.00;;;;;;;18.14;62.74;100559.92;1553687;92;21141;-85
2021/09/20 13:50:44;;;;;;;8.63;4.33;;;;;;;18.12;64.33;100558.09;1553652;92;21181;-86
2021/09/20 13:53:11;;;;;;;8.30;4.45;;;;;;;18.10;63.33;100559.52;1553827;92;21126;-86
2021/09/20 13:55:38;;;;;;;13.18;5.05;;;;;;;18.05;62.52;100562.36;1553846;92;21069;-86
2021/09/20 13:58:05;;;;;;;8.05;4.17;;;;;;;17.89;62.49;100563.30;1553831;92;20994;-85
2021/09/20 14:00:33;;;;;;;9.88;4.80;;;;;;;17.80;63.69;100563.80;1553840;92;21089;-86
2021/09/20 14:03:00;;;;;;;8.73;5.20;;;;;;;17.70;63.32;100570.24;1557049;89;22036;-87
2021/09/20 14:05:26;;;;;;;17.17;5.95;;;;;;;17.65;65.80;100572.55;1600355;89;21077;-86
2021/09/20 14:07:52;;;;;;;11.83;6.28;;;;;;;17.60;66.93;100571.84;1623045;87;21097;-85
2021/09/20 14:10:20;;;;;;;13.18;5.37;;;;;;;17.48;68.15;100572.39;1641330;87;21155;-85
2021/09/20 14:12:49;;;;;;;10.68;5.50;;;;;;;17.34;67.08;100573.77;1651115;86;21032;-86
2021/09/20 14:15:18;;;;;;;11.50;5.12;;;;;;;17.24;69.41;100573.44;1652801;86;21102;-87
2021/09/20 14:17:46;;;;;;;12.80;5.12;;;;;;;17.19;70.42;100577.62;1630481;86;20964;-87
2021/09/20 14:20:15;;;;;;;12.73;5.25;;;;;;;17.22;71.72;100579.73;1632851;86;21070;-87
2021/09/20 14:22:42;;;;;;;9.80;4.72;;;;;;;17.23;72.87;100574.53;1650779;86;21103;-87
2021/09/20 14:25:11;;;;;;;7.85;4.10;;;;;;;17.18;71.54;100573.30;1654235;86;21022;-86
2021/09/20 14:27:38;;;;;;;7.50;3.37;;;;;;;17.09;71.06;100575.66;1669642;82;21175;-87
2021/09/20 14:30:07;;;;;;;7.17;3.15;;;;;;;16.98;70.99;100584.61;1735333;82;21002;-87
2021/09/20 14:32:34;;;;;;;6.08;3.70;;;;;;;16.92;71.83;100589.91;1735406;82;20974;-86
2021/09/20 14:35:00;;;;;;;5.58;3.10;;;;;;;16.88;73.73;100586.16;1733540;82;21474;-86
2021/09/20 14:37:25;;;;;;;5.28;2.83;;;;;;;16.78;72.96;100589.33;1735604;82;21033;-85
2021/09/20 14:39:52;;;;;;;5.42;2.50;;;;;;;16.74;76.38;100590.22;1717819;83;21158;-87
2021/09/20 14:42:18;;;;;;;9.80;2.77;;;;;;;16.69;77.50;100593.03;1717828;83;21039;-90
2021/09/20 14:44:43;;;;;;;3.75;2.20;;;;;;;16.64;78.81;100595.28;1695311;83;20908;-92
2021/09/20 14:47:09;;;;;;;4.17;2.22;;;;;;;16.56;78.89;100596.00;1714175;83;20848;-89
2021/09/20 14:49:35;;;;;;;4.80;2.12;;;;;;;16.49;79.49;100602.36;1717950;83;21019;-90
2021/09/20 14:52:02;;;;;;;2.33;1.82;;;;;;;16.39;81.01;100604.72;1695735;83;21179;-91
2021/09/20 14:54:29;;;;;;;6.62;2.40;;;;;;;16.31;82.99;100602.11;1717633;83;21062;-91
2021/09/20 14:56:55;;;;;;;3.08;2.00;;;;;;;16.25;84.21;100606.02;1718057;83;21003;-90
2021/09/20 14:59:21;;;;;;;3.52;1.90;;;;;;;16.06;86.19;100590.28;1717775;83;21047;-91
2021/09/20 15:01:54;;;;;;;2.05;1.60;;;;;;;16.06;86.19;100590.28;1717988;83;21057;-91
2021/09/20 15:04:20;;;;;;;5.72;2.00;;;;;;;16.12;87.32;100608.16;1717790;83;21166;-89
2021/09/20 15:06:46;;;;;;;3.22;1.65;;;;;;;15.96;88.71;100614.92;1717585;83;21433;-86
2021/09/20 15:09:12;;;;;;;2.80;1.95;;;;;;;15.96;88.71;100614.92;1718060;83;20907;-87
2021/09/20 15:11:37;;;;;;;2.83;1.80;;;;;;;15.88;88.28;100606.35;1718073;83;21561;-88
2021/09/20 15:14:03;;;;;;;3.02;2.00;;;;;;;15.81;89.84;100614.05;1717875;83;20960;-87
2021/09/20 15:16:29;;;;;;;6.67;2.10;;;;;;;15.73;91.65;100622.86;1718071;82;21130;-87
2021/09/20 15:18:56;;;;;;;3.27;1.72;;;;;;;15.66;92.19;100622.39;1717913;83;21051;-88
2021/09/20 15:21:22;;;;;;;2.90;2.00;;;;;;;15.59;93.06;100625.48;1717999;83;21036;-89
2021/09/20 15:23:49;;;;;;;3.10;2.20;;;;;;;15.50;95.41;100635.39;1718017;83;21050;-89
2021/09/20 15:26:15;;;;;;;5.55;2.40;;;;;;;15.41;96.52;100631.15;1717980;83;21042;-87
2021/09/20 15:28:41;;;;;;;4.08;2.15;;;;;;;15.37;98.20;100633.37;1717716;83;21945;-88
2021/09/20 15:31:07;;;;;;;5.05;2.42;;;;;;;15.35;97.88;100634.20;1717729;83;20959;-89
2021/09/20 15:33:34;;;;;;;9.40;2.77;;;;;;;15.30;98.92;100643.78;1718120;83;21019;-87
2021/09/20 15:36:02;;;;;;;5.62;3.08;;;;;;;15.23;100.00;100645.47;1717877;83;21532;-88
2021/09/20 15:38:28;;;;;;;9.45;2.80;;;;;;;15.18;100.00;100646.36;1717701;83;21511;-87
2021/09/20 15:41:00;;;;;;;4.85;2.70;;;;;;;15.18;100.00;100646.91;1717936;83;21092;-88
2021/09/20 15:43:26;;;;;;;4.55;2.70;;;;;;;15.12;100.00;100643.44;1717917;83;21026;-89
2021/09/20 15:45:52;;;;;;;6.08;2.98;;;;;;;15.10;100.00;100652.41;1718091;83;20876;-88
2021/09/20 15:48:19;;;;;;;8.18;2.87;;;;;;;15.07;100.00;100656.27;1718040;83;21003;-88
2021/09/20 15:50:46;;;;;;;6.22;3.15;;;;;;;14.97;100.00;100656.63;1717949;83;21011;-89
2021/09/20 15:53:12;;;;;;;5.08;3.25;;;;;;;14.88;100.00;100656.17;1717919;83;21164;-89
2021/09/20 15:55:38;;;;;;;6.35;3.00;;;;;;;14.82;100.00;100664.91;1717789;83;21526;-88
2021/09/20 15:58:04;;;;;;;5.75;2.67;;;;;;;14.81;100.00;100663.84;1717856;83;20998;-87
2021/09/20 16:00:36;;;;;;;4.17;3.00;;;;;;;14.77;100.00;100662.27;1718022;83;20996;-83
2021/09/20 16:03:03;;;;;;;8.50;3.20;;;;;;;14.71;100.00;100669.64;1692597;84;21064;-87
2021/09/20 16:05:29;;;;;;;8.33;2.95;;;;;;;14.64;100.00;100673.21;1740764;82;21088;-88
2021/09/20 16:07:56;;;;;;;9.23;3.00;;;;;;;14.55;100.00;100674.92;1740813;82;21446;-87
2021/09/20 16:10:22;;;;;;;5.35;3.08;;;;;;;14.47;100.00;100670.07;1739187;82;21518;-88
2021/09/20 16:12:50;;;;;;;6.15;3.25;;;;;;;14.40;100.00;100670.95;1738715;82;21034;-88
2021/09/20 16:15:18;;;;;;;4.92;3.10;;;;;;;14.36;100.00;100677.50;1740353;82;21114;-88
2021/09/20 16:17:45;;;;;;;5.08;2.90;;;;;;;14.35;100.00;100681.28;1719395;80;21064;-86
2021/09/20 16:20:15;;;;;;;6.30;3.10;;;;;;;14.31;100.00;100682.95;1716565;83;20988;-87
2021/09/20 16:22:43;;;;;;;5.90;2.70;;;;;;;14.29;100.00;100679.18;1717888;82;21172;-86
2021/09/20 16:25:11;;;;;;;4.10;2.80;;;;;;;14.25;100.00;100683.53;1710537;83;21086;-88
2021/09/20 16:27:37;;;;;;;5.47;2.67;;;;;;;14.23;100.00;100684.34;1710630;84;20945;-89
2021/09/20 16:30:05;;;;;;;4.55;2.75;;;;;;;14.33;100.00;100690.27;1710419;84;21096;-87
2021/09/20 16:32:31;;;;;;;7.17;3.12;;;;;;;14.39;100.00;100689.69;1710517;84;21531;-88
2021/09/20 16:34:58;;;;;;;4.25;2.67;;;;;;;14.42;100.00;100692.62;1710499;84;20981;-88
2021/09/20 16:37:24;;;;;;;4.10;2.75;;;;;;;14.44;100.00;100695.88;1710190;83;20945;-88
2021/09/20 16:39:50;;;;;;;5.42;3.00;;;;;;;14.41;100.00;100692.90;1698090;84;21024;-88
2021/09/20 16:42:16;;;;;;;3.77;2.80;;;;;;;14.36;100.00;100694.31;1710604;83;21155;-88
2021/09/20 16:44:43;;;;;;;4.33;3.08;;;;;;;14.30;100.00;100697.05;1697984;84;21488;-88
2021/09/20 16:50:50;;;;;;;5.17;3.17;;;;;;;14.22;100.00;100709.04;1709919;84;21071;-87
2021/09/20 16:53:19;;;;;;;7.87;2.95;;;;;;;14.14;100.00;100706.92;1710515;84;21492;-87
2021/09/20 16:55:45;;;;;;;6.90;3.35;;;;;;;14.11;100.00;100706.93;1710470;83;21141;-88
2021/09/20 16:58:11;;;;;;;5.33;3.15;;;;;;;14.06;100.00;100711.85;1710294;83;21011;-87
2021/09/20 17:00:37;;;;;;;5.55;3.12;;;;;;;14.12;100.00;100715.86;1710581;83;20952;-87
2021/09/20 17:06:43;;;;;;;5.75;3.47;;;;;;;14.07;100.00;100719.44;1716776;82;21054;-86
2021/09/20 17:09:09;;;;;;;5.90;3.70;;;;;;;14.07;100.00;100725.66;1723808;83;21961;-86
2021/09/20 17:11:35;;;;;;;6.28;3.52;;;;;;;14.05;100.00;100731.89;1723794;83;20978;-86